createdAt,value
2022-09-30T00:00:56.325Z,99797.84
2022-09-30T00:03:24.189Z,99795.19
2022-09-30T00:06:07.657Z,99796.94
2022-09-30T00:08:36.274Z,99796.03
2022-09-30T00:11:05.854Z,99800.44
2022-09-30T00:13:34.813Z,99804.78
2022-09-30T00:16:02.434Z,99803.88
2022-09-30T00:18:29.775Z,99806.50
2022-09-30T00:20:56.578Z,99814.38
2022-09-30T00:23:23.952Z,99809.97
2022-09-30T00:25:50.655Z,99810.81
2022-09-30T00:28:17.472Z,99816.94
2022-09-30T00:30:43.993Z,99808.13
2022-09-30T00:33:10.569Z,99809.84
2022-09-30T00:35:37.941Z,99807.19
2022-09-30T00:38:04.700Z,99804.56
2022-09-30T00:40:31.771Z,99811.53
2022-09-30T00:43:00.456Z,99812.41
2022-09-30T00:45:29.295Z,99809.72
2022-09-30T00:48:14.528Z,99807.94
2022-09-30T00:50:47.184Z,99802.66
2022-09-30T00:53:20.145Z,99804.38
2022-09-30T00:56:05.018Z,99799.94
2022-09-30T00:58:37.181Z,99805.16
2022-09-30T01:01:04.590Z,99807.78
2022-09-30T01:03:36.698Z,99816.50
2022-09-30T01:06:03.424Z,99818.22
2022-09-30T01:08:33.500Z,99815.56
2022-09-30T01:11:03.409Z,99812.94
2022-09-30T01:13:35.024Z,99823.41
2022-09-30T01:16:07.829Z,99824.25
2022-09-30T01:18:47.581Z,99825.97
2022-09-30T01:21:46.728Z,99815.44
2022-09-30T01:24:30.697Z,99819.78
2022-09-30T01:27:15.918Z,99818.91
2022-09-30T01:30:21.776Z,99816.22
2022-09-30T01:33:07.809Z,99816.16
2022-09-30T01:35:51.163Z,99817.88
2022-09-30T01:38:31.065Z,99817.88
2022-09-30T01:41:09.189Z,99818.69
2022-09-30T01:44:13.300Z,99825.66
2022-09-30T01:46:59.468Z,99827.44
2022-09-30T01:49:38.875Z,99825.66
2022-09-30T01:52:15.460Z,99827.34
2022-09-30T01:55:06.260Z,99828.19
2022-09-30T01:57:51.148Z,99830.75
2022-09-30T02:00:18.063Z,99832.47
2022-09-30T02:02:56.802Z,99833.34
2022-09-30T02:05:50.852Z,99835.91
2022-09-30T02:08:30.093Z,99850.75
2022-09-30T02:11:27.747Z,99852.47
2022-09-30T02:14:02.299Z,99846.28
2022-09-30T02:16:39.916Z,99847.16
2022-09-30T02:19:20.462Z,99847.13
2022-09-30T02:21:58.457Z,99845.34
2022-09-30T02:24:28.399Z,99835.66
2022-09-30T02:26:58.214Z,99845.25
2022-09-30T02:29:30.424Z,99847.00
2022-09-30T02:32:03.300Z,99846.94
2022-09-30T02:34:37.863Z,99846.91
2022-09-30T02:37:19.346Z,99848.63
2022-09-30T02:40:10.755Z,99847.78
2022-09-30T02:42:39.032Z,99846.84
2022-09-30T02:45:10.248Z,99842.41
2022-09-30T02:48:28.760Z,99845.00
2022-09-30T02:51:23.817Z,99848.44
2022-09-30T02:54:17.897Z,99844.94
2022-09-30T02:56:54.811Z,99850.13
2022-09-30T02:59:23.599Z,99847.50
2022-09-30T03:01:50.380Z,99852.72
2022-09-30T03:04:23.083Z,99854.41
2022-09-30T03:06:49.692Z,99850.91
2022-09-30T03:09:16.339Z,99859.63
2022-09-30T03:11:42.959Z,99856.97
2022-09-30T03:14:38.606Z,99861.31
2022-09-30T03:17:30.203Z,99863.94
2022-09-30T03:20:27.706Z,99858.66
2022-09-30T03:23:20.180Z,99870.84
2022-09-30T03:26:10.518Z,99875.19
2022-09-30T03:28:52.001Z,99875.16
2022-09-30T03:31:24.324Z,99877.78
2022-09-30T03:34:33.256Z,99877.66
2022-09-30T03:37:17.022Z,99879.44
2022-09-30T03:40:06.011Z,99888.16
2022-09-30T03:42:47.800Z,99894.28
2022-09-30T03:45:21.015Z,99893.34
2022-09-30T03:47:52.036Z,99891.59
2022-09-30T03:50:21.781Z,99893.31
2022-09-30T03:52:49.761Z,99898.56
2022-09-30T03:55:17.318Z,99899.38
2022-09-30T03:57:44.703Z,99895.84
2022-09-30T04:00:13.055Z,99898.47
2022-09-30T04:02:39.643Z,99907.19
2022-09-30T04:05:07.069Z,99900.13
2022-09-30T04:07:34.056Z,99904.53
2022-09-30T04:10:00.827Z,99903.59
2022-09-30T04:12:27.410Z,99908.81
2022-09-30T04:14:54.004Z,99908.75
2022-09-30T04:17:20.684Z,99906.09
2022-09-30T04:19:47.398Z,99905.22
2022-09-30T04:22:13.972Z,99910.41
2022-09-30T04:24:40.608Z,99909.50
2022-09-30T04:27:07.176Z,99914.72
2022-09-30T04:29:33.664Z,99905.09
2022-09-30T04:32:00.372Z,99912.94
2022-09-30T04:34:26.957Z,99913.78
2022-09-30T04:36:53.784Z,99922.47
2022-09-30T04:39:20.414Z,99918.06
2022-09-30T04:41:47.120Z,99924.19
2022-09-30T04:44:13.743Z,99927.63
2022-09-30T04:46:40.593Z,99934.56
2022-09-30T04:49:09.315Z,99939.81
2022-09-30T04:51:36.763Z,99938.91
2022-09-30T04:54:03.465Z,99938.88
2022-09-30T04:56:30.093Z,99944.97
2022-09-30T04:58:56.714Z,99944.84
2022-09-30T05:01:23.421Z,99954.41
2022-09-30T05:03:50.689Z,99960.53
2022-09-30T05:06:17.490Z,99955.22
2022-09-30T05:08:46.018Z,99959.56
2022-09-30T05:11:18.764Z,99967.44
2022-09-30T05:13:46.459Z,99971.81
2022-09-30T05:16:14.193Z,99967.47
2022-09-30T05:18:42.694Z,99968.34
2022-09-30T05:21:10.216Z,99960.47
2022-09-30T05:23:37.005Z,99965.72
2022-09-30T05:26:05.768Z,99968.34
2022-09-30T05:28:35.241Z,99965.75
2022-09-30T05:31:06.204Z,99971.03
2022-09-30T05:33:33.321Z,99966.72
2022-09-30T05:36:02.284Z,99972.91
2022-09-30T05:38:29.293Z,99975.53
2022-09-30T05:40:55.815Z,99980.81
2022-09-30T05:43:22.425Z,99989.66
2022-09-30T05:45:56.604Z,99999.34
2022-09-30T05:48:24.178Z,100007.28
2022-09-30T05:50:58.431Z,100004.78
2022-09-30T05:53:25.271Z,100004.84
2022-09-30T05:55:52.139Z,100012.81
2022-09-30T05:58:20.487Z,100012.00
2022-09-30T06:00:48.689Z,100012.09
2022-09-30T06:03:16.764Z,100013.06
2022-09-30T06:05:45.314Z,100020.19
2022-09-30T06:08:12.936Z,100012.41
2022-09-30T06:10:43.901Z,100018.69
2022-09-30T06:13:10.813Z,100012.75
2022-09-30T06:15:39.665Z,100025.09
2022-09-30T06:18:07.051Z,100022.59
2022-09-30T06:20:33.777Z,100028.81
2022-09-30T06:23:00.768Z,100025.47
2022-09-30T06:25:28.901Z,100022.06
2022-09-30T06:27:55.988Z,100026.59
2022-09-30T06:30:22.797Z,100039.84
2022-09-30T06:32:49.416Z,100036.50
2022-09-30T06:35:16.788Z,100037.56
2022-09-30T06:37:44.756Z,100035.94
2022-09-30T06:40:11.504Z,100035.19
2022-09-30T06:42:38.298Z,100041.44
2022-09-30T06:45:05.519Z,100052.09
2022-09-30T06:47:33.414Z,100054.88
2022-09-30T06:50:00.221Z,100062.03
2022-09-30T06:52:27.211Z,100055.19
2022-09-30T06:54:56.731Z,100065.81
2022-09-30T06:57:26.747Z,100063.31
2022-09-30T06:59:54.464Z,100060.81
2022-09-30T07:02:21.856Z,100053.91
2022-09-30T07:04:48.442Z,100061.13
2022-09-30T07:07:15.196Z,100060.34
2022-09-30T07:09:43.217Z,100063.06
2022-09-30T07:12:09.947Z,100065.84
2022-09-30T07:14:36.986Z,100067.72
2022-09-30T07:17:04.584Z,100070.47
2022-09-30T07:19:34.151Z,100075.00
2022-09-30T07:22:21.528Z,100075.13
2022-09-30T07:24:48.269Z,100082.31
2022-09-30T07:27:14.818Z,100072.75
2022-09-30T07:30:07.085Z,100073.78
2022-09-30T07:32:28.299Z,100077.44
2022-09-30T07:34:54.897Z,100074.97
2022-09-30T07:37:21.642Z,100074.22
2022-09-30T07:39:48.869Z,100077.88
2022-09-30T07:42:21.652Z,100071.81
2022-09-30T07:44:52.122Z,100080.69
2022-09-30T07:47:19.994Z,100081.69
2022-09-30T07:49:46.839Z,100080.88
2022-09-30T07:52:13.429Z,100094.16
2022-09-30T07:54:45.321Z,100097.72
2022-09-30T07:57:14.749Z,100093.41
2022-09-30T07:59:42.023Z,100087.31
2022-09-30T08:02:15.562Z,100097.94
2022-09-30T08:04:44.197Z,100092.75
2022-09-30T08:07:12.957Z,100092.78
2022-09-30T08:09:39.597Z,100093.75
2022-09-30T08:12:06.247Z,100099.13
2022-09-30T08:14:33.212Z,100093.03
2022-09-30T08:17:00.638Z,100094.88
2022-09-30T08:19:29.442Z,100094.94
2022-09-30T08:21:57.128Z,100093.28
2022-09-30T08:24:25.165Z,100095.03
2022-09-30T08:26:52.718Z,100099.50
2022-09-30T08:29:35.746Z,100106.63
2022-09-30T08:32:06.863Z,100103.16
2022-09-30T08:34:35.663Z,100103.22
2022-09-30T08:37:07.855Z,100105.94
2022-09-30T08:39:39.393Z,100106.00
2022-09-30T08:42:32.783Z,100114.88
2022-09-30T08:45:43.536Z,100114.94
2022-09-30T08:48:37.537Z,100117.63
2022-09-30T08:51:33.323Z,100117.66
2022-09-30T08:54:05.468Z,100127.41
2022-09-30T08:56:33.908Z,100119.50
2022-09-30T08:59:40.713Z,100124.81
2022-09-30T09:02:27.651Z,100130.16
2022-09-30T09:04:59.297Z,100129.31
2022-09-30T09:07:37.607Z,100132.84
2022-09-30T09:10:15.703Z,100129.38
2022-09-30T09:13:06.292Z,100132.09
2022-09-30T09:15:50.832Z,100134.78
2022-09-30T09:18:26.286Z,100131.25
2022-09-30T09:20:58.286Z,100133.91
2022-09-30T09:23:26.104Z,100141.00
2022-09-30T09:25:56.010Z,100132.25
2022-09-30T09:28:41.857Z,100142.84
2022-09-30T09:31:17.202Z,100134.03
2022-09-30T09:33:44.093Z,100120.75
2022-09-30T09:36:33.076Z,100119.00
2022-09-30T09:39:27.404Z,100119.00
2022-09-30T09:42:07.493Z,100117.22
2022-09-30T09:44:57.282Z,100126.94
2022-09-30T09:47:23.858Z,100127.84
2022-09-30T09:49:57.701Z,100118.09
2022-09-30T09:52:44.451Z,100112.78
2022-09-30T09:55:13.116Z,100113.66
2022-09-30T09:57:40.276Z,100111.00
2022-09-30T10:00:29.702Z,100111.88
2022-09-30T10:03:01.853Z,100108.28
2022-09-30T10:05:30.214Z,100099.41
2022-09-30T10:08:16.953Z,100114.44
2022-09-30T10:10:49.753Z,100106.44
2022-09-30T10:13:24.872Z,100103.75
2022-09-30T10:15:56.990Z,100114.34
2022-09-30T10:18:32.233Z,100105.47
2022-09-30T10:21:02.503Z,100108.09
2022-09-30T10:23:36.918Z,100114.28
2022-09-30T10:26:15.344Z,100116.03
2022-09-30T10:28:51.777Z,100111.56
2022-09-30T10:31:31.803Z,100115.94
2022-09-30T10:34:31.570Z,100114.19
2022-09-30T10:37:01.950Z,100107.03
2022-09-30T10:39:37.596Z,100109.63
2022-09-30T10:42:11.526Z,100110.47
2022-09-30T10:44:44.478Z,100108.63
2022-09-30T10:47:16.885Z,100108.56
2022-09-30T10:49:51.328Z,100116.44
2022-09-30T10:52:24.253Z,100103.13
2022-09-30T10:54:53.964Z,100100.44
2022-09-30T10:57:25.388Z,100105.69
2022-09-30T10:59:58.926Z,100099.38
2022-09-30T11:02:54.045Z,100100.19
2022-09-30T11:05:31.427Z,100109.00
2022-09-30T11:08:04.685Z,100102.75
2022-09-30T11:10:40.132Z,100101.03
2022-09-30T11:13:18.272Z,100104.53
2022-09-30T11:16:03.251Z,100100.88
2022-09-30T11:18:47.674Z,100099.88
2022-09-30T11:21:25.889Z,100099.03
2022-09-30T11:24:13.986Z,100098.25
2022-09-30T11:26:58.632Z,100094.75
2022-09-30T11:29:43.825Z,100091.19
2022-09-30T11:32:28.161Z,100095.56
2022-09-30T11:35:18.950Z,100091.91
2022-09-30T11:38:07.314Z,100096.28
2022-09-30T11:41:01.472Z,100096.28
2022-09-30T11:44:05.648Z,100106.81
2022-09-30T11:46:59.434Z,100101.41
2022-09-30T11:49:53.972Z,100110.22
2022-09-30T11:52:42.644Z,100104.84
2022-09-30T11:55:27.963Z,100103.88
2022-09-30T11:58:40.953Z,100105.50
2022-09-30T12:01:16.268Z,100110.72
2022-09-30T12:03:49.092Z,100111.56
2022-09-30T12:06:28.805Z,100111.53
2022-09-30T12:09:02.705Z,100105.28
2022-09-30T12:11:47.235Z,100114.13
2022-09-30T12:14:26.396Z,100107.91
2022-09-30T12:16:56.728Z,100114.09
2022-09-30T12:19:43.922Z,100113.16
2022-09-30T12:22:28.524Z,100114.03
2022-09-30T12:24:55.120Z,100106.84
2022-09-30T12:27:27.770Z,100108.56
2022-09-30T12:30:20.665Z,100108.50
2022-09-30T12:33:17.930Z,100105.81
2022-09-30T12:36:05.429Z,100103.13
2022-09-30T12:39:10.564Z,100101.31
2022-09-30T12:42:03.969Z,100103.94
2022-09-30T12:45:16.939Z,100098.56
2022-09-30T12:47:54.753Z,100095.91
2022-09-30T12:50:25.871Z,100099.44
2022-09-30T12:52:52.626Z,100098.44
2022-09-30T12:55:29.111Z,100087.78
2022-09-30T12:57:56.895Z,100086.03
2022-09-30T13:00:26.602Z,100092.28
2022-09-30T13:03:17.734Z,100086.91
2022-09-30T13:05:51.856Z,100084.19
2022-09-30T13:08:22.768Z,100094.81
2022-09-30T13:10:59.849Z,100088.63
2022-09-30T13:13:33.764Z,100087.72
2022-09-30T13:16:06.488Z,100080.66
2022-09-30T13:18:33.143Z,100079.78
2022-09-30T13:21:06.652Z,100086.03
2022-09-30T13:23:53.716Z,100085.13
2022-09-30T13:26:32.662Z,100081.56
2022-09-30T13:29:02.642Z,100080.69
2022-09-30T13:31:52.995Z,100070.91
2022-09-30T13:34:22.255Z,100072.66
2022-09-30T13:36:51.749Z,100076.28
2022-09-30T13:39:18.181Z,100064.72
2022-09-30T13:41:50.394Z,100070.97
2022-09-30T13:44:22.876Z,100064.72
2022-09-30T13:46:54.540Z,100067.44
2022-09-30T13:49:46.744Z,100071.88
2022-09-30T13:52:22.962Z,100067.38
2022-09-30T13:54:52.259Z,100069.13
2022-09-30T13:57:26.142Z,100065.56
2022-09-30T14:00:20.161Z,100071.72
2022-09-30T14:03:06.221Z,100075.25
2022-09-30T14:05:42.017Z,100060.97
2022-09-30T14:08:31.201Z,100055.66
2022-09-30T14:11:06.637Z,100053.88
2022-09-30T14:14:08.246Z,100064.56
2022-09-30T14:17:11.122Z,100069.88
2022-09-30T14:19:58.302Z,100065.41
2022-09-30T14:22:30.162Z,100061.84
2022-09-30T14:24:57.800Z,100064.50
2022-09-30T14:27:35.777Z,100062.66
2022-09-30T14:30:11.244Z,100060.00
2022-09-30T14:32:52.996Z,100060.91
2022-09-30T14:35:19.545Z,100063.56
2022-09-30T14:37:51.147Z,100066.22
2022-09-30T14:40:27.618Z,100062.63
2022-09-30T14:42:59.831Z,100068.00
2022-09-30T14:45:33.001Z,100063.47
2022-09-30T14:48:07.990Z,100060.91
2022-09-30T14:50:51.296Z,100066.31
2022-09-30T14:53:30.337Z,100067.16
2022-09-30T14:55:58.071Z,100070.75
2022-09-30T14:58:29.234Z,100065.41
2022-09-30T15:01:03.663Z,100063.63
2022-09-30T15:03:32.820Z,100062.75
2022-09-30T15:05:59.651Z,100052.09
2022-09-30T15:08:26.693Z,100054.75
2022-09-30T15:10:55.873Z,100054.75
2022-09-30T15:13:25.280Z,100058.31
2022-09-30T15:15:51.882Z,100047.63
2022-09-30T15:18:25.178Z,100053.00
2022-09-30T15:20:57.358Z,100061.94
2022-09-30T15:23:31.154Z,100055.75
2022-09-30T15:25:59.009Z,100051.31
2022-09-30T15:28:26.110Z,100057.56
2022-09-30T15:30:56.855Z,100057.63
2022-09-30T15:33:27.641Z,100058.56
2022-09-30T15:36:03.341Z,100047.94
2022-09-30T15:38:31.779Z,100052.44
2022-09-30T15:41:10.003Z,100055.13
2022-09-30T15:43:39.737Z,100054.28
2022-09-30T15:46:31.071Z,100046.34
2022-09-30T15:49:04.082Z,100049.06
2022-09-30T15:51:43.433Z,100050.88
2022-09-30T15:54:16.082Z,100045.59
2022-09-30T15:56:43.526Z,100042.97
2022-09-30T15:59:14.733Z,100050.16
2022-09-30T16:01:49.944Z,100047.50
2022-09-30T16:04:16.583Z,100044.91
2022-09-30T16:06:52.931Z,100037.84
2022-09-30T16:09:35.369Z,100038.78
2022-09-30T16:12:14.075Z,100043.28
2022-09-30T16:14:48.830Z,100036.13
2022-09-30T16:17:19.507Z,100037.84
2022-09-30T16:19:57.996Z,100044.78
2022-09-30T16:22:54.897Z,100034.59
2022-09-30T16:25:30.594Z,100040.31
2022-09-30T16:28:13.565Z,100030.50
2022-09-30T16:30:48.640Z,100031.63
2022-09-30T16:33:16.845Z,100027.41
2022-09-30T16:35:44.640Z,100032.91
2022-09-30T16:38:15.003Z,100036.63
2022-09-30T16:40:41.801Z,100025.19
2022-09-30T16:43:11.717Z,100033.38
2022-09-30T16:45:39.976Z,100035.34
2022-09-30T16:48:15.311Z,100035.53
2022-09-30T16:50:45.405Z,100028.56
2022-09-30T16:53:11.901Z,100026.03
2022-09-30T16:55:38.561Z,100025.28
2022-09-30T16:58:05.535Z,100028.09
2022-09-30T17:00:32.714Z,100036.19
2022-09-30T17:02:59.456Z,100029.25
2022-09-30T17:05:27.596Z,100031.09
2022-09-30T17:07:59.247Z,100034.78
2022-09-30T17:10:29.166Z,100036.63
2022-09-30T17:12:58.694Z,100032.31
2022-09-30T17:15:25.199Z,100049.19
2022-09-30T17:17:53.028Z,100046.63
2022-09-30T17:20:20.672Z,100041.38
2022-09-30T17:22:47.411Z,100047.66
2022-09-30T17:25:17.480Z,100053.03
2022-09-30T17:27:48.994Z,100050.47
2022-09-30T17:30:16.102Z,100045.22
2022-09-30T17:32:42.704Z,100056.75
2022-09-30T17:35:09.431Z,100057.72
2022-09-30T17:37:38.530Z,100052.41
2022-09-30T17:40:26.460Z,100059.53
2022-09-30T17:43:08.577Z,100043.66
2022-09-30T17:45:35.793Z,100042.78
2022-09-30T17:48:02.619Z,100056.97
2022-09-30T17:50:29.317Z,100058.78
2022-09-30T17:52:56.310Z,100049.06
2022-09-30T17:55:22.813Z,100050.88
2022-09-30T17:57:50.748Z,100052.66
2022-09-30T18:00:17.413Z,100050.91
2022-09-30T18:02:44.734Z,100043.84
2022-09-30T18:05:11.780Z,100047.38
2022-09-30T18:07:38.716Z,100043.88
2022-09-30T18:10:05.918Z,100043.88
2022-09-30T18:12:34.395Z,100044.78
2022-09-30T18:15:01.081Z,100060.69
2022-09-30T18:17:28.218Z,100052.75
2022-09-30T18:19:54.761Z,100056.28
2022-09-30T18:22:21.271Z,100047.47
2022-09-30T18:25:10.850Z,100052.75
2022-09-30T18:27:37.459Z,100059.78
2022-09-30T18:30:05.892Z,100056.22
2022-09-30T18:32:32.868Z,100062.41
2022-09-30T18:34:59.427Z,100067.72
2022-09-30T18:37:28.827Z,100061.53
2022-09-30T18:39:55.431Z,100057.13
2022-09-30T18:42:21.924Z,100053.56
2022-09-30T18:44:48.848Z,100065.06
2022-09-30T18:47:17.455Z,100067.66
2022-09-30T18:49:44.351Z,100067.69
2022-09-30T18:52:10.935Z,100069.41
2022-09-30T18:54:37.595Z,100072.06
2022-09-30T18:57:04.582Z,100073.81
2022-09-30T18:59:31.301Z,100074.66
2022-09-30T19:01:59.619Z,100064.06
2022-09-30T19:04:26.319Z,100060.53
2022-09-30T19:06:52.927Z,100057.88
2022-09-30T19:09:19.867Z,100061.38
2022-09-30T19:11:47.940Z,100056.09
2022-09-30T19:14:15.507Z,100051.66
2022-09-30T19:16:43.485Z,100050.75
2022-09-30T19:19:10.707Z,100055.16
2022-09-30T19:21:40.436Z,100054.25
2022-09-30T19:24:09.106Z,100049.84
2022-09-30T19:26:37.633Z,100046.28
2022-09-30T19:29:05.885Z,100037.47
2022-09-30T19:31:33.972Z,100037.44
2022-09-30T19:34:01.980Z,100036.53
2022-09-30T19:36:31.497Z,100035.63
2022-09-30T19:39:11.393Z,100029.44
2022-09-30T19:41:38.888Z,100034.72
2022-09-30T19:44:05.486Z,100032.09
2022-09-30T19:46:32.128Z,100033.84
2022-09-30T19:48:58.940Z,100035.56
2022-09-30T19:51:28.092Z,100043.50
2022-09-30T19:54:05.198Z,100043.47
2022-09-30T19:56:33.887Z,100037.28
2022-09-30T19:59:00.777Z,100036.38
2022-09-30T20:01:28.741Z,100035.47
2022-09-30T20:04:00.149Z,100034.59
2022-09-30T20:06:28.255Z,100036.31
2022-09-30T20:09:00.330Z,100029.25
2022-09-30T20:11:29.710Z,100031.88
2022-09-30T20:14:16.429Z,100031.00
2022-09-30T20:16:43.935Z,100027.44
2022-09-30T20:19:11.770Z,100020.38
2022-09-30T20:21:38.714Z,100023.00
2022-09-30T20:24:05.742Z,100017.69
2022-09-30T20:26:34.260Z,100022.97
2022-09-30T20:29:01.324Z,100022.06
2022-09-30T20:31:28.726Z,100020.25
2022-09-30T20:33:59.103Z,100034.34
2022-09-30T20:36:27.036Z,100030.81
2022-09-30T20:38:59.093Z,100028.16
2022-09-30T20:41:31.075Z,100032.53
2022-09-30T20:43:58.348Z,100028.09
2022-09-30T20:46:26.552Z,100026.31
2022-09-30T20:48:53.061Z,100036.84
2022-09-30T20:51:20.448Z,100031.56
2022-09-30T20:53:51.468Z,100027.13
2022-09-30T20:56:20.825Z,100033.31
2022-09-30T20:58:48.884Z,100027.13
2022-09-30T21:01:20.891Z,100031.50
2022-09-30T21:03:50.398Z,100033.22
2022-09-30T21:06:20.570Z,100018.22
2022-09-30T21:08:47.709Z,100031.41
2022-09-30T21:11:14.738Z,100031.41
2022-09-30T21:13:43.340Z,100026.06
2022-09-30T21:16:12.038Z,100033.09
2022-09-30T21:18:38.812Z,100029.59
2022-09-30T21:21:05.802Z,100035.72
2022-09-30T21:23:33.748Z,100023.34
2022-09-30T21:26:08.724Z,100018.06
2022-09-30T21:28:36.150Z,100014.53
2022-09-30T21:31:10.567Z,100013.63
2022-09-30T21:33:37.155Z,100012.72
2022-09-30T21:36:06.338Z,100010.97
2022-09-30T21:38:34.159Z,100007.41
2022-09-30T21:41:04.787Z,100003.00
2022-09-30T21:43:33.509Z,99999.47
2022-09-30T21:46:02.155Z,99994.16
2022-09-30T21:48:30.535Z,99997.69
2022-09-30T21:50:57.490Z,99993.25
2022-09-30T21:53:27.357Z,99987.13
2022-09-30T21:55:58.745Z,99990.63
2022-09-30T21:58:26.499Z,99982.69
2022-09-30T22:00:56.987Z,99983.59
2022-09-30T22:03:23.788Z,99979.22
2022-09-30T22:05:52.296Z,99980.97
2022-09-30T22:08:19.235Z,99986.25
2022-09-30T22:10:45.837Z,99978.31
2022-09-30T22:13:12.821Z,99982.72
2022-09-30T22:15:39.450Z,99972.16
2022-09-30T22:18:10.375Z,99970.41
2022-09-30T22:20:38.644Z,99971.25
2022-09-30T22:23:05.215Z,99973.03
2022-09-30T22:25:32.583Z,99968.66
2022-09-30T22:27:59.383Z,99965.09
2022-09-30T22:30:28.829Z,99966.84
2022-09-30T22:33:14.048Z,99955.41
2022-09-30T22:35:59.567Z,99957.16
2022-09-30T22:38:26.200Z,99954.50
2022-09-30T22:40:55.769Z,99954.50
2022-09-30T22:43:24.461Z,99947.47
2022-09-30T22:46:05.461Z,99937.78
2022-09-30T22:48:32.435Z,99939.56
2022-09-30T22:50:59.644Z,99933.38
2022-09-30T22:53:27.468Z,99929.84
2022-09-30T22:55:54.813Z,99925.47
2022-09-30T22:58:26.218Z,99922.84
2022-09-30T23:00:57.561Z,99925.47
2022-09-30T23:03:28.063Z,99921.09
2022-09-30T23:06:02.183Z,99925.47
2022-09-30T23:08:31.282Z,99925.47
2022-09-30T23:10:57.823Z,99925.47
2022-09-30T23:13:24.400Z,99923.75
2022-09-30T23:15:57.945Z,99924.63
2022-09-30T23:18:24.445Z,99917.56
2022-09-30T23:20:57.923Z,99910.56
2022-09-30T23:23:24.673Z,99919.38
2022-09-30T23:26:25.107Z,99915.00
2022-09-30T23:28:56.525Z,99919.38
2022-09-30T23:31:23.550Z,99916.75
2022-09-30T23:33:55.775Z,99908.00
2022-09-30T23:36:26.917Z,99908.88
2022-09-30T23:38:53.758Z,99908.91
2022-09-30T23:41:21.354Z,99907.16
2022-09-30T23:43:48.691Z,99896.59
2022-09-30T23:46:17.043Z,99895.75
2022-09-30T23:48:46.974Z,99897.50
2022-09-30T23:51:14.058Z,99897.50
2022-09-30T23:53:42.385Z,99896.66
2022-09-30T23:56:16.967Z,99887.84
2022-09-30T23:58:44.689Z,99899.25
